sensor_id;sensor_type;location;lat;lon;timestamp;pressure;altitude;pressure_sealevel;temperature;humidity
37200;BME280;23096;50.892;16.746;2022-11-23T00:00:24;98175.02;;;2.11;82.12
37200;BME280;23096;50.892;16.746;2022-11-23T00:02:54;98172.02;;;2.13;82.20
37200;BME280;23096;50.892;16.746;2022-11-23T00:05:20;98179.16;;;2.17;82.20
37200;BME280;23096;50.892;16.746;2022-11-23T00:07:46;98176.17;;;2.17;82.19
37200;BME280;23096;50.892;16.746;2022-11-23T00:10:15;98171.95;;;2.18;82.17
37200;BME280;23096;50.892;16.746;2022-11-23T00:12:41;98173.16;;;2.21;82.21
37200;BME280;23096;50.892;16.746;2022-11-23T00:15:07;98170.62;;;2.21;82.17
37200;BME280;23096;50.892;16.746;2022-11-23T00:17:33;98171.89;;;2.21;82.12
37200;BME280;23096;50.892;16.746;2022-11-23T00:19:59;98164.33;;;2.18;82.07
37200;BME280;23096;50.892;16.746;2022-11-23T00:22:25;98170.23;;;2.20;82.15
37200;BME280;23096;50.892;16.746;2022-11-23T00:24:51;98176.12;;;2.22;82.20
37200;BME280;23096;50.892;16.746;2022-11-23T00:27:17;98178.64;;;2.23;82.20
37200;BME280;23096;50.892;16.746;2022-11-23T00:29:43;98182.81;;;2.27;82.26
37200;BME280;23096;50.892;16.746;2022-11-23T00:32:08;98177.70;;;2.29;82.20
37200;BME280;23096;50.892;16.746;2022-11-23T00:34:36;98173.00;;;2.32;82.22
37200;BME280;23096;50.892;16.746;2022-11-23T00:37:01;98175.98;;;2.31;82.19
37200;BME280;23096;50.892;16.746;2022-11-23T00:39:27;98178.50;;;2.33;82.20
37200;BME280;23096;50.892;16.746;2022-11-23T00:41:54;98192.05;;;2.33;82.16
37200;BME280;23096;50.892;16.746;2022-11-23T00:44:19;98192.92;;;2.32;82.07
37200;BME280;23096;50.892;16.746;2022-11-23T00:46:45;98200.13;;;2.31;82.09
37200;BME280;23096;50.892;16.746;2022-11-23T00:49:11;98194.19;;;2.32;82.14
37200;BME280;23096;50.892;16.746;2022-11-23T00:51:37;98185.25;;;2.34;82.17
37200;BME280;23096;50.892;16.746;2022-11-23T00:54:03;98191.58;;;2.35;82.17
37200;BME280;23096;50.892;16.746;2022-11-23T00:56:30;98192.84;;;2.37;82.18
37200;BME280;23096;50.892;16.746;2022-11-23T00:58:58;98186.04;;;2.37;82.12
37200;BME280;23096;50.892;16.746;2022-11-23T01:01:26;98196.23;;;2.36;82.02
37200;BME280;23096;50.892;16.746;2022-11-23T01:03:56;98186.57;;;2.32;81.88
37200;BME280;23096;50.892;16.746;2022-11-23T01:06:29;98187.47;;;2.26;81.85
37200;BME280;23096;50.892;16.746;2022-11-23T01:11:29;98188.31;;;2.28;82.10
37200;BME280;23096;50.892;16.746;2022-11-23T01:13:56;98200.13;;;2.31;82.08
37200;BME280;23096;50.892;16.746;2022-11-23T01:16:27;98196.31;;;2.31;82.08
37200;BME280;23096;50.892;16.746;2022-11-23T01:18:55;98195.47;;;2.32;82.07
37200;BME280;23096;50.892;16.746;2022-11-23T01:21:22;98194.14;;;2.34;82.08
37200;BME280;23096;50.892;16.746;2022-11-23T01:23:49;98198.84;;;2.33;82.06
37200;BME280;23096;50.892;16.746;2022-11-23T01:26:15;98200.09;;;2.34;82.07
37200;BME280;23096;50.892;16.746;2022-11-23T01:28:42;98201.31;;;2.36;82.10
37200;BME280;23096;50.892;16.746;2022-11-23T01:31:13;98205.55;;;2.37;82.06
37200;BME280;23096;50.892;16.746;2022-11-23T01:33:36;98206.80;;;2.38;82.07
37200;BME280;23096;50.892;16.746;2022-11-23T01:36:10;98205.97;;;2.38;82.04
37200;BME280;23096;50.892;16.746;2022-11-23T01:38:45;98200.89;;;2.38;82.04
37200;BME280;23096;50.892;16.746;2022-11-23T01:41:10;98204.26;;;2.38;82.01
37200;BME280;23096;50.892;16.746;2022-11-23T01:43:43;98202.56;;;2.37;81.99
37200;BME280;23096;50.892;16.746;2022-11-23T01:46:09;98203.52;;;2.30;81.76
37200;BME280;23096;50.892;16.746;2022-11-23T01:51:09;98206.62;;;2.22;81.85
37200;BME280;23096;50.892;16.746;2022-11-23T01:53:34;98208.38;;;2.18;81.71
37200;BME280;23096;50.892;16.746;2022-11-23T01:56:02;98208.86;;;2.13;81.76
37200;BME280;23096;50.892;16.746;2022-11-23T01:58:31;98203.36;;;2.12;81.80
37200;BME280;23096;50.892;16.746;2022-11-23T02:00:58;98203.78;;;2.13;81.88
37200;BME280;23096;50.892;16.746;2022-11-23T02:03:26;98201.22;;;2.15;81.96
37200;BME280;23096;50.892;16.746;2022-11-23T02:05:54;98204.14;;;2.17;81.99
37200;BME280;23096;50.892;16.746;2022-11-23T02:08:23;98213.02;;;2.19;81.94
37200;BME280;23096;50.892;16.746;2022-11-23T02:10:50;98204.67;;;2.10;81.62
37200;BME280;23096;50.892;16.746;2022-11-23T02:13:17;98204.39;;;2.00;81.53
37200;BME280;23096;50.892;16.746;2022-11-23T02:15:44;98203.60;;;1.95;81.70
37200;BME280;23096;50.892;16.746;2022-11-23T02:18:16;98203.60;;;1.95;81.76
37200;BME280;23096;50.892;16.746;2022-11-23T02:20:47;98199.83;;;1.92;81.75
37200;BME280;23096;50.892;16.746;2022-11-23T02:28:36;98195.16;;;1.95;81.79
37200;BME280;23096;50.892;16.746;2022-11-23T02:31:01;98190.46;;;1.96;81.87
37200;BME280;23096;50.892;16.746;2022-11-23T02:33:27;98194.32;;;1.94;81.81
37200;BME280;23096;50.892;16.746;2022-11-23T02:35:54;98202.43;;;1.89;81.73
37200;BME280;23096;50.892;16.746;2022-11-23T02:38:22;98206.23;;;1.89;81.79
37200;BME280;23096;50.892;16.746;2022-11-23T02:40:52;98205.83;;;1.86;81.70
37200;BME280;23096;50.892;16.746;2022-11-23T02:43:20;98208.81;;;1.86;81.79
37200;BME280;23096;50.892;16.746;2022-11-23T02:45:51;98207.58;;;1.83;81.72
37200;BME280;23096;50.892;16.746;2022-11-23T02:48:21;98206.32;;;1.81;81.72
37200;BME280;23096;50.892;16.746;2022-11-23T02:50:47;98203.77;;;1.83;81.71
37200;BME280;23096;50.892;16.746;2022-11-23T02:53:13;98205.50;;;1.79;81.65
37200;BME280;23096;50.892;16.746;2022-11-23T02:55:39;98208.16;;;1.71;81.50
37200;BME280;23096;50.892;16.746;2022-11-23T02:58:05;98211.59;;;1.67;81.61
37200;BME280;23096;50.892;16.746;2022-11-23T03:00:31;98205.69;;;1.67;81.69
37200;BME280;23096;50.892;16.746;2022-11-23T03:02:58;98203.52;;;1.69;81.77
37200;BME280;23096;50.892;16.746;2022-11-23T03:05:25;98201.44;;;1.67;81.68
37200;BME280;23096;50.892;16.746;2022-11-23T03:07:51;98201.89;;;1.65;81.76
37200;BME280;23096;50.892;16.746;2022-11-23T03:10:17;98208.62;;;1.68;81.83
37200;BME280;23096;50.892;16.746;2022-11-23T03:12:44;98213.66;;;1.72;81.88
37200;BME280;23096;50.892;16.746;2022-11-23T03:15:12;98211.49;;;1.75;81.92
37200;BME280;23096;50.892;16.746;2022-11-23T03:17:39;98211.93;;;1.75;81.79
37200;BME280;23096;50.892;16.746;2022-11-23T03:20:07;98216.13;;;1.76;81.84
37200;BME280;23096;50.892;16.746;2022-11-23T03:22:35;98205.97;;;1.76;81.79
37200;BME280;23096;50.892;16.746;2022-11-23T03:25:01;98203.42;;;1.77;81.84
37200;BME280;23096;50.892;16.746;2022-11-23T03:27:27;98200.88;;;1.77;81.76
37200;BME280;23096;50.892;16.746;2022-11-23T03:29:55;98203.03;;;1.76;81.74
37200;BME280;23096;50.892;16.746;2022-11-23T03:32:22;98193.73;;;1.73;81.73
37200;BME280;23096;50.892;16.746;2022-11-23T03:34:50;98199.22;;;1.76;81.84
37200;BME280;23096;50.892;16.746;2022-11-23T03:37:16;98193.68;;;1.78;81.88
37200;BME280;23096;50.892;16.746;2022-11-23T03:39:42;98193.24;;;1.79;81.78
37200;BME280;23096;50.892;16.746;2022-11-23T03:42:16;98197.49;;;1.78;81.81
37200;BME280;23096;50.892;16.746;2022-11-23T03:44:43;98203.41;;;1.79;81.77
37200;BME280;23096;50.892;16.746;2022-11-23T03:47:09;98201.70;;;1.78;81.78
37200;BME280;23096;50.892;16.746;2022-11-23T03:49:36;98199.59;;;1.79;81.78
37200;BME280;23096;50.892;16.746;2022-11-23T03:52:02;98200.84;;;1.80;81.77
37200;BME280;23096;50.892;16.746;2022-11-23T03:54:28;98204.70;;;1.76;81.67
37200;BME280;23096;50.892;16.746;2022-11-23T03:56:54;98203.49;;;1.72;81.61
37200;BME280;23096;50.892;16.746;2022-11-23T03:59:21;98199.70;;;1.71;81.69
37200;BME280;23096;50.892;16.746;2022-11-23T04:01:47;98197.99;;;1.71;81.67
37200;BME280;23096;50.892;16.746;2022-11-23T04:04:15;98200.63;;;1.65;81.57
37200;BME280;23096;50.892;16.746;2022-11-23T04:06:53;98201.09;;;1.62;81.61
37200;BME280;23096;50.892;16.746;2022-11-23T04:09:24;98201.91;;;1.64;81.73
37200;BME280;23096;50.892;16.746;2022-11-23T04:11:51;98203.61;;;1.63;81.71
37200;BME280;23096;50.892;16.746;2022-11-23T04:14:18;98207.00;;;1.62;81.67
37200;BME280;23096;50.892;16.746;2022-11-23T04:16:44;98205.34;;;1.60;81.67
37200;BME280;23096;50.892;16.746;2022-11-23T04:19:10;98204.48;;;1.59;81.68
37200;BME280;23096;50.892;16.746;2022-11-23T04:21:36;98208.28;;;1.61;81.76
37200;BME280;23096;50.892;16.746;2022-11-23T04:24:02;98206.18;;;1.60;81.79
37200;BME280;23096;50.892;16.746;2022-11-23T04:26:31;98203.19;;;1.62;81.75
37200;BME280;23096;50.892;16.746;2022-11-23T04:28:57;98193.00;;;1.65;81.79
37200;BME280;23096;50.892;16.746;2022-11-23T04:31:23;98200.61;;;1.67;81.79
37200;BME280;23096;50.892;16.746;2022-11-23T04:33:50;98203.14;;;1.67;81.75
37200;BME280;23096;50.892;16.746;2022-11-23T04:36:17;98203.95;;;1.70;81.83
37200;BME280;23096;50.892;16.746;2022-11-23T04:38:43;98204.78;;;1.71;81.82
37200;BME280;23096;50.892;16.746;2022-11-23T04:41:11;98203.49;;;1.72;81.84
37200;BME280;23096;50.892;16.746;2022-11-23T04:43:37;98204.70;;;1.76;81.82
37200;BME280;23096;50.892;16.746;2022-11-23T04:46:03;98203.42;;;1.77;81.82
37200;BME280;23096;50.892;16.746;2022-11-23T04:48:29;98205.95;;;1.77;81.79
37200;BME280;23096;50.892;16.746;2022-11-23T04:50:57;98208.52;;;1.76;81.70
37200;BME280;23096;50.892;16.746;2022-11-23T04:53:27;98200.97;;;1.71;81.60
37200;BME280;23096;50.892;16.746;2022-11-23T04:55:54;98207.79;;;1.67;81.65
37200;BME280;23096;50.892;16.746;2022-11-23T04:58:21;98204.80;;;1.69;81.78
37200;BME280;23096;50.892;16.746;2022-11-23T05:00:49;98207.32;;;1.71;81.80
37200;BME280;23096;50.892;16.746;2022-11-23T05:03:16;98203.51;;;1.71;81.80
37200;BME280;23096;50.892;16.746;2022-11-23T05:05:43;98207.30;;;1.72;81.81
37200;BME280;23096;50.892;16.746;2022-11-23T05:08:09;98209.84;;;1.72;81.79
37200;BME280;23096;50.892;16.746;2022-11-23T05:10:49;98211.95;;;1.73;81.80
37200;BME280;23096;50.892;16.746;2022-11-23T05:13:16;98221.66;;;1.73;81.78
37200;BME280;23096;50.892;16.746;2022-11-23T05:15:42;98224.64;;;1.73;81.74
37200;BME280;23096;50.892;16.746;2022-11-23T05:18:10;98225.53;;;1.70;81.74
37200;BME280;23096;50.892;16.746;2022-11-23T05:20:37;98224.27;;;1.70;81.78
37200;BME280;23096;50.892;16.746;2022-11-23T05:23:03;98223.86;;;1.68;81.68
37200;BME280;23096;50.892;16.746;2022-11-23T05:25:30;98228.13;;;1.64;81.71
37200;BME280;23096;50.892;16.746;2022-11-23T05:28:01;98225.21;;;1.62;81.66
37200;BME280;23096;50.892;16.746;2022-11-23T05:30:27;98223.53;;;1.59;81.69
37200;BME280;23096;50.892;16.746;2022-11-23T05:32:58;98222.69;;;1.60;81.81
37200;BME280;23096;50.892;16.746;2022-11-23T05:35:27;98223.49;;;1.64;81.88
37200;BME280;23096;50.892;16.746;2022-11-23T05:37:54;98218.78;;;1.68;81.87
37200;BME280;23096;50.892;16.746;2022-11-23T05:40:20;98221.31;;;1.68;81.83
37200;BME280;23096;50.892;16.746;2022-11-23T05:42:47;98224.28;;;1.69;81.78
37200;BME280;23096;50.892;16.746;2022-11-23T05:45:15;98229.81;;;1.67;81.77
37200;BME280;23096;50.892;16.746;2022-11-23T05:47:47;98233.63;;;1.65;81.77
37200;BME280;23096;50.892;16.746;2022-11-23T05:50:16;98232.76;;;1.66;81.84
37200;BME280;23096;50.892;16.746;2022-11-23T05:52:42;98221.75;;;1.67;81.87
37200;BME280;23096;50.892;16.746;2022-11-23T05:55:08;98225.11;;;1.69;81.88
37200;BME280;23096;50.892;16.746;2022-11-23T05:57:34;98223.41;;;1.70;81.87
37200;BME280;23096;50.892;16.746;2022-11-23T06:00:00;98223.81;;;1.72;81.95
37200;BME280;23096;50.892;16.746;2022-11-23T06:02:29;98220.80;;;1.76;81.96
37200;BME280;23096;50.892;16.746;2022-11-23T06:04:57;98222.45;;;1.79;81.98
37200;BME280;23096;50.892;16.746;2022-11-23T06:07:25;98222.81;;;1.83;81.96
37200;BME280;23096;50.892;16.746;2022-11-23T06:09:55;98224.52;;;1.82;81.85
37200;BME280;23096;50.892;16.746;2022-11-23T06:12:21;98232.52;;;1.85;81.95
37200;BME280;23096;50.892;16.746;2022-11-23T06:14:47;98229.98;;;1.85;81.84
37200;BME280;23096;50.892;16.746;2022-11-23T06:17:15;98229.14;;;1.86;81.92
37200;BME280;23096;50.892;16.746;2022-11-23T06:19:45;98233.37;;;1.87;81.88
37200;BME280;23096;50.892;16.746;2022-11-23T06:22:11;98237.98;;;1.90;81.95
37200;BME280;23096;50.892;16.746;2022-11-23T06:24:40;98241.33;;;1.94;81.97
37200;BME280;23096;50.892;16.746;2022-11-23T06:27:11;98245.95;;;1.96;81.96
37200;BME280;23096;50.892;16.746;2022-11-23T06:29:39;98248.49;;;1.96;81.88
37200;BME280;23096;50.892;16.746;2022-11-23T06:32:05;98255.30;;;1.94;81.81
37200;BME280;23096;50.892;16.746;2022-11-23T06:34:32;98253.60;;;1.93;81.84
37200;BME280;23096;50.892;16.746;2022-11-23T06:36:58;98256.96;;;1.95;81.92
37200;BME280;23096;50.892;16.746;2022-11-23T06:39:24;98260.76;;;1.97;81.90
37200;BME280;23096;50.892;16.746;2022-11-23T06:41:51;98263.67;;;1.99;81.99
37200;BME280;23096;50.892;16.746;2022-11-23T06:44:17;98262.41;;;1.99;81.89
37200;BME280;23096;50.892;16.746;2022-11-23T06:46:43;98263.30;;;1.97;81.82
37200;BME280;23096;50.892;16.746;2022-11-23T06:49:09;98262.86;;;1.97;81.89
37200;BME280;23096;50.892;16.746;2022-11-23T06:51:35;98261.20;;;1.96;81.87
37200;BME280;23096;50.892;16.746;2022-11-23T06:54:01;98271.73;;;1.99;81.93
37200;BME280;23096;50.892;16.746;2022-11-23T06:56:29;98270.45;;;2.00;81.96
37200;BME280;23096;50.892;16.746;2022-11-23T06:58:56;98272.56;;;1.99;81.91
37200;BME280;23096;50.892;16.746;2022-11-23T07:01:24;98272.55;;;2.01;81.92
37200;BME280;23096;50.892;16.746;2022-11-23T07:03:51;98278.44;;;2.04;81.99
37200;BME280;23096;50.892;16.746;2022-11-23T07:06:22;98276.73;;;2.05;81.99
37200;BME280;23096;50.892;16.746;2022-11-23T07:08:48;98275.42;;;2.08;82.04
37200;BME280;23096;50.892;16.746;2022-11-23T07:11:19;98283.02;;;2.11;82.00
37200;BME280;23096;50.892;16.746;2022-11-23T07:13:45;98278.78;;;2.10;81.98
37200;BME280;23096;50.892;16.746;2022-11-23T07:16:12;98272.02;;;2.10;82.02
37200;BME280;23096;50.892;16.746;2022-11-23T07:18:38;98277.92;;;2.13;82.08
37200;BME280;23096;50.892;16.746;2022-11-23T07:21:06;98279.57;;;2.15;82.13
37200;BME280;23096;50.892;16.746;2022-11-23T07:23:32;98279.54;;;2.18;82.16
37200;BME280;23096;50.892;16.746;2022-11-23T07:26:01;98282.90;;;2.20;82.19
37200;BME280;23096;50.892;16.746;2022-11-23T07:28:27;98277.78;;;2.23;82.23
37200;BME280;23096;50.892;16.746;2022-11-23T07:30:53;98281.14;;;2.25;82.21
37200;BME280;23096;50.892;16.746;2022-11-23T07:33:20;98278.17;;;2.24;82.22
37200;BME280;23096;50.892;16.746;2022-11-23T07:35:46;98288.78;;;2.24;82.22
37200;BME280;23096;50.892;16.746;2022-11-23T07:38:13;98293.42;;;2.24;82.25
37200;BME280;23096;50.892;16.746;2022-11-23T07:40:39;98299.80;;;2.23;82.27
37200;BME280;23096;50.892;16.746;2022-11-23T07:43:08;98295.14;;;2.24;82.29
37200;BME280;23096;50.892;16.746;2022-11-23T07:45:34;98300.66;;;2.23;82.30
37200;BME280;23096;50.892;16.746;2022-11-23T07:48:04;98299.84;;;2.21;82.23
37200;BME280;23096;50.892;16.746;2022-11-23T07:50:32;98305.34;;;2.19;82.22
37200;BME280;23096;50.892;16.746;2022-11-23T07:53:00;98312.14;;;2.19;82.28
37200;BME280;23096;50.892;16.746;2022-11-23T07:55:27;98319.31;;;2.21;82.31
37200;BME280;23096;50.892;16.746;2022-11-23T07:57:55;98325.67;;;2.21;82.25
37200;BME280;23096;50.892;16.746;2022-11-23T08:00:21;98333.30;;;2.21;82.23
37200;BME280;23096;50.892;16.746;2022-11-23T08:02:47;98332.09;;;2.18;82.11
37200;BME280;23096;50.892;16.746;2022-11-23T08:05:13;98338.86;;;2.16;82.13
37200;BME280;23096;50.892;16.746;2022-11-23T08:07:40;98343.55;;;2.15;82.13
37200;BME280;23096;50.892;16.746;2022-11-23T08:10:06;98341.46;;;2.13;82.17
37200;BME280;23096;50.892;16.746;2022-11-23T08:12:32;98338.96;;;2.08;82.10
37200;BME280;23096;50.892;16.746;2022-11-23T08:14:58;98339.85;;;2.05;82.15
37200;BME280;23096;50.892;16.746;2022-11-23T08:17:24;98334.77;;;2.05;82.22
37200;BME280;23096;50.892;16.746;2022-11-23T08:19:50;98333.89;;;2.06;82.26
37200;BME280;23096;50.892;16.746;2022-11-23T08:22:16;98334.71;;;2.08;82.36
37200;BME280;23096;50.892;16.746;2022-11-23T08:24:42;98333.85;;;2.11;82.34
37200;BME280;23096;50.892;16.746;2022-11-23T08:27:08;98330.88;;;2.11;82.32
37200;BME280;23096;50.892;16.746;2022-11-23T08:29:34;98329.59;;;2.13;82.33
37200;BME280;23096;50.892;16.746;2022-11-23T08:32:03;98326.61;;;2.14;82.35
37200;BME280;23096;50.892;16.746;2022-11-23T08:34:29;98329.97;;;2.16;82.34
37200;BME280;23096;50.892;16.746;2022-11-23T08:36:55;98322.77;;;2.17;82.35
37200;BME280;23096;50.892;16.746;2022-11-23T08:39:21;98313.87;;;2.17;82.32
37200;BME280;23096;50.892;16.746;2022-11-23T08:41:47;98312.59;;;2.17;82.30
37200;BME280;23096;50.892;16.746;2022-11-23T08:44:13;98314.72;;;2.16;82.26
37200;BME280;23096;50.892;16.746;2022-11-23T08:46:39;98313.88;;;2.15;82.30
37200;BME280;23096;50.892;16.746;2022-11-23T08:49:05;98321.05;;;2.17;82.31
37200;BME280;23096;50.892;16.746;2022-11-23T08:51:31;98319.39;;;2.16;82.27
37200;BME280;23096;50.892;16.746;2022-11-23T08:53:57;98312.62;;;2.14;82.24
37200;BME280;23096;50.892;16.746;2022-11-23T08:56:23;98312.23;;;2.13;82.28
37200;BME280;23096;50.892;16.746;2022-11-23T08:58:49;98309.25;;;2.13;82.29
37200;BME280;23096;50.892;16.746;2022-11-23T09:01:16;98317.68;;;2.17;82.38
37200;BME280;23096;50.892;16.746;2022-11-23T09:03:42;98315.13;;;2.18;82.39
37200;BME280;23096;50.892;16.746;2022-11-23T09:06:09;98317.21;;;2.20;82.38
37200;BME280;23096;50.892;16.746;2022-11-23T09:08:36;98317.64;;;2.21;82.35
37200;BME280;23096;50.892;16.746;2022-11-23T09:11:03;98311.23;;;2.23;82.35
37200;BME280;23096;50.892;16.746;2022-11-23T09:13:30;98304.86;;;2.24;82.38
37200;BME280;23096;50.892;16.746;2022-11-23T09:16:00;98298.51;;;2.24;82.38
37200;BME280;23096;50.892;16.746;2022-11-23T09:18:27;98295.56;;;2.25;82.37
37200;BME280;23096;50.892;16.746;2022-11-23T09:20:55;98299.75;;;2.27;82.48
37200;BME280;23096;50.892;16.746;2022-11-23T09:23:21;98297.55;;;2.33;82.50
37200;BME280;23096;50.892;16.746;2022-11-23T09:25:48;98295.79;;;2.38;82.55
37200;BME280;23096;50.892;16.746;2022-11-23T09:28:17;98296.57;;;2.43;82.60
37200;BME280;23096;50.892;16.746;2022-11-23T09:30:48;98298.57;;;2.50;82.62
37200;BME280;23096;50.892;16.746;2022-11-23T09:33:14;98292.59;;;2.56;82.62
37200;BME280;23096;50.892;16.746;2022-11-23T09:35:40;98286.14;;;2.60;82.62
37200;BME280;23096;50.892;16.746;2022-11-23T09:38:06;98286.48;;;2.66;82.65
37200;BME280;23096;50.892;16.746;2022-11-23T09:40:35;98283.02;;;2.70;82.67
37200;BME280;23096;50.892;16.746;2022-11-23T09:45:55;98279.52;;;2.77;82.61
37200;BME280;23096;50.892;16.746;2022-11-23T09:51:20;98270.97;;;2.83;82.60
37200;BME280;23096;50.892;16.746;2022-11-23T09:53:45;98262.02;;;2.84;82.54
37200;BME280;23096;50.892;16.746;2022-11-23T09:56:24;98259.87;;;2.87;82.58
37200;BME280;23096;50.892;16.746;2022-11-23T09:58:49;98255.57;;;2.91;82.60
37200;BME280;23096;50.892;16.746;2022-11-23T10:01:23;98252.55;;;2.94;82.62
37200;BME280;23096;50.892;16.746;2022-11-23T10:03:49;98249.49;;;2.99;82.66
37200;BME280;23096;50.892;16.746;2022-11-23T10:06:22;98250.30;;;3.01;82.63
37200;BME280;23096;50.892;16.746;2022-11-23T10:17:01;98254.64;;;3.19;82.73
37200;BME280;23096;50.892;16.746;2022-11-23T10:22:19;98256.95;;;3.33;82.75
37200;BME280;23096;50.892;16.746;2022-11-23T10:24:49;98253.89;;;3.38;82.74
37200;BME280;23096;50.892;16.746;2022-11-23T10:27:17;98249.94;;;3.44;82.73
37200;BME280;23096;50.892;16.746;2022-11-23T10:29:44;98257.09;;;3.48;82.71
37200;BME280;23096;50.892;16.746;2022-11-23T10:34:58;98248.80;;;3.59;82.81
37200;BME280;23096;50.892;16.746;2022-11-23T10:37:31;98248.67;;;3.67;82.83
37200;BME280;23096;50.892;16.746;2022-11-23T10:39:58;98248.55;;;3.73;82.83
37200;BME280;23096;50.892;16.746;2022-11-23T10:44:57;98246.20;;;3.84;82.81
37200;BME280;23096;50.892;16.746;2022-11-23T10:47:39;98245.70;;;3.88;82.77
37200;BME280;23096;50.892;16.746;2022-11-23T10:50:21;98243.45;;;3.94;82.81
37200;BME280;23096;50.892;16.746;2022-11-23T10:52:56;98244.98;;;4.02;82.89
37200;BME280;23096;50.892;16.746;2022-11-23T10:55:23;98243.08;;;4.11;82.89
37200;BME280;23096;50.892;16.746;2022-11-23T10:57:49;98241.66;;;4.17;82.84
37200;BME280;23096;50.892;16.746;2022-11-23T11:00:16;98245.43;;;4.20;82.80
37200;BME280;23096;50.892;16.746;2022-11-23T11:02:54;98244.45;;;4.26;82.78
37200;BME280;23096;50.892;16.746;2022-11-23T11:07:59;98242.20;;;4.31;82.70
37200;BME280;23096;50.892;16.746;2022-11-23T11:10:34;98233.72;;;4.31;82.61
37200;BME280;23096;50.892;16.746;2022-11-23T11:13:21;98238.78;;;4.32;82.64
37200;BME280;23096;50.892;16.746;2022-11-23T11:15:59;98240.39;;;4.36;82.69
37200;BME280;23096;50.892;16.746;2022-11-23T11:18:26;98242.91;;;4.38;82.66
37200;BME280;23096;50.892;16.746;2022-11-23T11:20:56;98242.84;;;4.41;82.64
37200;BME280;23096;50.892;16.746;2022-11-23T11:23:23;98246.16;;;4.45;82.66
37200;BME280;23096;50.892;16.746;2022-11-23T11:25:50;98239.28;;;4.48;82.69
37200;BME280;23096;50.892;16.746;2022-11-23T11:28:32;98242.19;;;4.51;82.66
37200;BME280;23096;50.892;16.746;2022-11-23T11:36:49;98245.44;;;4.57;82.58
37200;BME280;23096;50.892;16.746;2022-11-23T11:39:33;98241.97;;;4.60;82.56
37200;BME280;23096;50.892;16.746;2022-11-23T11:42:04;98233.00;;;4.61;82.55
37200;BME280;23096;50.892;16.746;2022-11-23T11:44:32;98238.52;;;4.63;82.56
37200;BME280;23096;50.892;16.746;2022-11-23T11:47:03;98230.39;;;4.65;82.48
37200;BME280;23096;50.892;16.746;2022-11-23T11:52:06;98238.39;;;4.67;82.51
37200;BME280;23096;50.892;16.746;2022-11-23T11:54:39;98240.05;;;4.70;82.49
37200;BME280;23096;50.892;16.746;2022-11-23T11:57:19;98237.50;;;4.70;82.41
37200;BME280;23096;50.892;16.746;2022-11-23T11:59:48;98239.67;;;4.67;82.37
37200;BME280;23096;50.892;16.746;2022-11-23T12:05:31;98236.26;;;4.68;82.33
37200;BME280;23096;50.892;16.746;2022-11-23T12:07:29;98235.39;;;4.68;82.31
37200;BME280;23096;50.892;16.746;2022-11-23T12:10:10;98237.53;;;4.68;82.34
37200;BME280;23096;50.892;16.746;2022-11-23T12:12:38;98241.27;;;4.71;82.37
37200;BME280;23096;50.892;16.746;2022-11-23T12:15:04;98240.82;;;4.73;82.36
37200;BME280;23096;50.892;16.746;2022-11-23T12:17:47;98245.00;;;4.76;82.32
37200;BME280;23096;50.892;16.746;2022-11-23T12:25:48;98231.31;;;4.78;82.29
37200;BME280;23096;50.892;16.746;2022-11-23T12:28:22;98237.27;;;4.79;82.30
37200;BME280;23096;50.892;16.746;2022-11-23T12:30:59;98227.41;;;4.82;82.29
37200;BME280;23096;50.892;16.746;2022-11-23T12:39:10;98226.45;;;4.86;82.25
37200;BME280;23096;50.892;16.746;2022-11-23T12:41:55;98223.04;;;4.87;82.24
37200;BME280;23096;50.892;16.746;2022-11-23T12:44:27;98227.22;;;4.89;82.23
37200;BME280;23096;50.892;16.746;2022-11-23T12:47:00;98225.91;;;4.91;82.22
37200;BME280;23096;50.892;16.746;2022-11-23T12:54:54;98227.43;;;4.98;82.23
37200;BME280;23096;50.892;16.746;2022-11-23T12:57:45;98227.36;;;5.01;82.21
37200;BME280;23096;50.892;16.746;2022-11-23T13:00:17;98229.44;;;5.03;82.19
37200;BME280;23096;50.892;16.746;2022-11-23T13:11:01;98234.75;;;5.12;82.12
37200;BME280;23096;50.892;16.746;2022-11-23T13:24:00;98250.27;;;5.04;81.83
37200;BME280;23096;50.892;16.746;2022-11-23T13:26:27;98258.00;;;5.01;81.83
37200;BME280;23096;50.892;16.746;2022-11-23T13:28:54;98263.17;;;4.98;81.75
37200;BME280;23096;50.892;16.746;2022-11-23T13:31:29;98262.89;;;4.92;81.67
37200;BME280;23096;50.892;16.746;2022-11-23T13:34:01;98265.67;;;4.83;81.57
37200;BME280;23096;50.892;16.746;2022-11-23T13:36:35;98270.11;;;4.75;81.53
37200;BME280;23096;50.892;16.746;2022-11-23T13:39:06;98269.91;;;4.66;81.46
37200;BME280;23096;50.892;16.746;2022-11-23T13:44:21;98273.25;;;4.50;81.47
37200;BME280;23096;50.892;16.746;2022-11-23T13:46:59;98270.43;;;4.43;81.45
37200;BME280;23096;50.892;16.746;2022-11-23T13:49:36;98270.05;;;4.40;81.52
37200;BME280;23096;50.892;16.746;2022-11-23T13:57:39;98274.02;;;4.34;81.50
37200;BME280;23096;50.892;16.746;2022-11-23T14:06:22;98283.09;;;4.28;81.45
37200;BME280;23096;50.892;16.746;2022-11-23T14:17:18;98294.30;;;4.21;81.48
37200;BME280;23096;50.892;16.746;2022-11-23T14:28:33;98284.56;;;4.19;81.41
37200;BME280;23096;50.892;16.746;2022-11-23T14:42:12;98291.05;;;4.13;81.40
37200;BME280;23096;50.892;16.746;2022-11-23T14:44:39;98292.75;;;4.14;81.41
37200;BME280;23096;50.892;16.746;2022-11-23T14:47:06;98296.13;;;4.14;81.40
37200;BME280;23096;50.892;16.746;2022-11-23T14:49:33;98289.78;;;4.13;81.40
37200;BME280;23096;50.892;16.746;2022-11-23T14:52:00;98294.49;;;4.12;81.31
37200;BME280;23096;50.892;16.746;2022-11-23T14:54:28;98293.27;;;4.09;81.27
37200;BME280;23096;50.892;16.746;2022-11-23T14:56:56;98296.67;;;4.08;81.30
37200;BME280;23096;50.892;16.746;2022-11-23T14:59:28;98298.40;;;4.07;81.30
37200;BME280;23096;50.892;16.746;2022-11-23T15:01:57;98300.97;;;4.06;81.22
37200;BME280;23096;50.892;16.746;2022-11-23T15:04:26;98298.95;;;4.00;81.16
37200;BME280;23096;50.892;16.746;2022-11-23T15:07:02;98298.59;;;3.98;81.20
37200;BME280;23096;50.892;16.746;2022-11-23T15:09:43;98301.14;;;3.98;81.25